Nansha Dao, China
Current Conditions -  °F | °C
As of 11:00 AM on Sunday 26 Oct 2014 (Local Time) from WBKT Reporting Station
Broken Clouds Broken Clouds  
Wind Chill: 88°   Ceiling: 28000
Heat Index: 100°   Visibility: 6mi
Dew Point: 77°   Wind: 5mph
Humidity: 70%   Direction: 120°ESE
Pressure: 29.88"   Gusts: NA
Location:  10.38°N, 114.37°E
Report Text: WBKT 260300Z 12004KT 9999 FEW016 BKN280 31/25 Q1012
Loading
Personal Weather Stations






























Interactive Weather Map
Tropical Storm Tracking
New forecast layout! Learn more

10-Day Weather Forecast

Advertisements
Track Severe Weather on mobile